Pagrindinis puslapis
METAR-TAF:

METAR-TAF

Oro uostai :

Ankaros oro uostas

Ankara Esenboğa, Turkija

platuma: 40-07N, ilguma: 032-59E, Aukštis: 953 m

Dabartinis oras

Ataskaita buvo paskelbta 25 minutes, ne 22:50 UTC
Vėjas 9 kt iš Šiaurės
Temperatūra 14°C
Drėgmė 58%
Slėgis 1018 hPa
Matomumas 10 km arba daugiau
Išsisklaidę debesys ne aukštis 4000 ft
Išsisklaidę debesys ne aukštis 10000 ft

METAR: LTAC 202250Z 01009KT 9999 SCT040 SCT100 14/06 Q1018 NOSIG

Laikas: 02:15 (23:15 UTC)

Prognozė

Ataskaita buvo paskelbta 6 valandos ir 35 minutes, ne 16:40 UTC
Prognozė galioja nuo 20 metu 18 UTC su 21 metu 18 UTC
Vėjas 12 kt iš Šiaurės/Šiaurės Vakarų
Matomumas 10 km arba daugiau
Išsisklaidę debesys ne aukštis 4000 ft
Tapsmas
nuo 20 metu 18 UTC su 20 metu 21 UTC
Vėjas 2 kt nuo kintamojo kryptimis
Tapsmas
nuo 21 metu 06 UTC su 21 metu 08 UTC
Vėjas 12 kt iš Šiaurės

TAF: LTAC 201640Z 2018/2118 33012KT 9999 SCT040 BECMG 2018/2021 VRB02KT BECMG 2106/2108 01012KT

Orai ataskaitas ir orų prognozės (METAR, TAF).

turimą stotys yra geltonos ir raudonos taškus žemėlapyje.

Perkelti pele per norėdami pamatyti stoties vardą.

Tada spustelėkite, norėdami matyti oro stebėjimo ir prognozės.

Norėdami pakeisti žemėlapį: spustelėkite ant žalios mygtukų su juodo kryžiaus žemyn,; žalią mygtuką su brūkšneliu, jei norite nutolinti; arba žalių rodyklių gretimoms žemėlapius.


METAR-TAF: